createdAt,value
2023-05-02T00:00:03.177Z,90.17
2023-05-02T00:01:03.352Z,89.66
2023-05-02T00:02:02.715Z,89.87
2023-05-02T00:03:02.622Z,89.97
2023-05-02T00:04:02.469Z,89.31
2023-05-02T00:05:02.124Z,89.83
2023-05-02T00:06:02.113Z,90.84
2023-05-02T00:07:01.990Z,91.16
2023-05-02T00:08:02.012Z,90.84
2023-05-02T00:09:01.963Z,91.16
2023-05-02T00:10:02.151Z,91.16
2023-05-02T00:11:01.908Z,90.75
2023-05-02T00:12:01.885Z,91.97
2023-05-02T00:13:01.814Z,93.35
2023-05-02T00:14:01.884Z,94.17
2023-05-02T00:15:01.920Z,94.27
2023-05-02T00:16:02.082Z,93.25
2023-05-02T00:17:02.417Z,92.83
2023-05-02T00:18:02.333Z,93.25
2023-05-02T00:19:02.397Z,93.55
2023-05-02T00:20:02.328Z,93.66
2023-05-02T00:21:02.257Z,94.17
2023-05-02T00:22:02.178Z,93.66
2023-05-02T00:23:02.151Z,94.07
2023-05-02T00:24:02.553Z,94.07
2023-05-02T00:25:02.499Z,94.37
2023-05-02T00:26:02.566Z,94.48
2023-05-02T00:27:02.607Z,93.92
2023-05-02T00:28:02.564Z,93.20
2023-05-02T00:29:02.788Z,93.30
2023-05-02T00:30:03.000Z,93.51
2023-05-02T00:31:02.949Z,93.71
2023-05-02T00:32:03.021Z,93.62
2023-05-02T00:33:03.081Z,93.30
2023-05-02T00:34:03.002Z,93.20
2023-05-02T00:35:02.985Z,93.62
2023-05-02T00:36:02.923Z,93.62
2023-05-02T00:37:02.382Z,93.00
2023-05-02T00:38:02.108Z,93.00
2023-05-02T00:39:02.366Z,92.55
2023-05-02T00:40:02.386Z,92.75
2023-05-02T00:41:02.308Z,92.44
2023-05-02T00:42:02.012Z,91.63
2023-05-02T00:43:01.899Z,91.93
2023-05-02T00:44:01.893Z,92.34
2023-05-02T00:45:01.886Z,92.44
2023-05-02T00:46:01.946Z,93.26
2023-05-02T00:47:02.449Z,92.75
2023-05-02T00:48:02.448Z,92.24
2023-05-02T00:49:02.732Z,92.85
2023-05-02T00:50:03.027Z,93.37
2023-05-02T00:51:02.802Z,93.16
2023-05-02T00:52:02.658Z,92.14
2023-05-02T00:53:02.731Z,91.63
2023-05-02T00:54:02.695Z,92.24
2023-05-02T00:55:02.778Z,91.58
2023-05-02T00:56:02.798Z,90.97
2023-05-02T00:57:02.817Z,91.07
2023-05-02T00:58:02.778Z,90.56
2023-05-02T00:59:03.178Z,90.86
2023-05-02T01:00:02.861Z,91.07
2023-05-02T01:01:02.968Z,90.45
2023-05-02T01:02:02.006Z,90.15
2023-05-02T01:03:02.181Z,89.43
2023-05-02T01:04:02.507Z,88.92
2023-05-02T01:05:02.189Z,88.62
2023-05-02T01:06:02.297Z,89.09
2023-05-02T01:07:01.938Z,89.80
2023-05-02T01:08:02.063Z,90.31
2023-05-02T01:09:02.014Z,90.41
2023-05-02T01:10:01.940Z,90.82
2023-05-02T01:11:02.077Z,91.23
2023-05-02T01:12:02.039Z,91.33
2023-05-02T01:13:02.009Z,91.64
2023-05-02T01:14:01.988Z,91.54
2023-05-02T01:15:01.958Z,91.44
2023-05-02T01:16:01.916Z,92.05
2023-05-02T01:17:02.777Z,92.15
2023-05-02T01:18:02.404Z,91.64
2023-05-02T01:19:02.439Z,92.05
2023-05-02T01:20:02.661Z,92.05
2023-05-02T01:21:02.317Z,92.05
2023-05-02T01:22:02.046Z,91.54
2023-05-02T01:23:02.214Z,91.33
2023-05-02T01:24:02.228Z,91.33
2023-05-02T01:25:02.228Z,91.13
2023-05-02T01:26:02.225Z,91.33
2023-05-02T01:27:02.237Z,91.33
2023-05-02T01:28:02.243Z,91.54
2023-05-02T01:29:02.180Z,91.95
2023-05-02T01:30:02.349Z,91.64
2023-05-02T01:31:02.274Z,91.70
2023-05-02T01:32:02.292Z,91.80
2023-05-02T01:33:02.479Z,91.60
2023-05-02T01:34:02.259Z,91.60
2023-05-02T01:35:02.262Z,90.88
2023-05-02T01:36:02.271Z,90.47
2023-05-02T01:37:03.147Z,90.68
2023-05-02T01:38:02.697Z,90.88
2023-05-02T01:39:02.769Z,90.88
2023-05-02T01:40:02.970Z,90.37
2023-05-02T01:41:03.028Z,89.86
2023-05-02T01:42:02.085Z,89.35
2023-05-02T01:43:01.898Z,89.04
2023-05-02T01:44:01.806Z,89.15
2023-05-02T01:45:01.944Z,90.47
2023-05-02T01:46:02.160Z,90.37
2023-05-02T01:47:02.220Z,89.72
2023-05-02T01:48:01.816Z,90.88
2023-05-02T01:49:02.270Z,91.39
2023-05-02T01:50:02.538Z,91.29
2023-05-02T01:51:01.950Z,90.53
2023-05-02T01:52:02.682Z,90.53
2023-05-02T01:53:02.802Z,89.92
2023-05-02T01:54:02.282Z,90.02
2023-05-02T01:55:02.649Z,89.41
2023-05-02T01:56:02.671Z,89.00
2023-05-02T01:57:02.917Z,88.45
2023-05-02T01:58:02.928Z,89.17
2023-05-02T01:59:02.951Z,89.88
2023-05-02T02:00:03.216Z,90.59
2023-05-02T02:01:02.554Z,90.49
2023-05-02T02:02:02.943Z,90.08
2023-05-02T02:03:02.978Z,89.58
2023-05-02T02:04:03.047Z,90.08
2023-05-02T02:05:03.097Z,90.19
2023-05-02T02:06:03.054Z,88.45
2023-05-02T02:07:02.810Z,87.84
2023-05-02T02:08:02.967Z,87.94
2023-05-02T02:09:02.654Z,87.84
2023-05-02T02:10:02.750Z,87.29
2023-05-02T02:11:02.515Z,87.08
2023-05-02T02:12:03.074Z,86.67
2023-05-02T02:13:03.053Z,86.57
2023-05-02T02:14:03.073Z,86.36
2023-05-02T02:15:03.324Z,86.57
2023-05-02T02:16:03.006Z,87.59
2023-05-02T02:17:03.778Z,87.49
2023-05-02T02:18:03.799Z,87.38
2023-05-02T02:19:03.589Z,87.29
2023-05-02T02:20:03.588Z,87.18
2023-05-02T02:21:03.586Z,88.41
2023-05-02T02:22:03.482Z,88.20
2023-05-02T02:23:03.333Z,89.53
2023-05-02T02:24:03.372Z,89.90
2023-05-02T02:25:03.452Z,89.08
2023-05-02T02:26:03.025Z,90.00
2023-05-02T02:27:03.779Z,91.22
2023-05-02T02:28:03.587Z,91.43
2023-05-02T02:29:03.436Z,90.92
2023-05-02T02:30:03.515Z,91.12
2023-05-02T02:31:03.624Z,91.22
2023-05-02T02:32:03.450Z,91.83
2023-05-02T02:33:03.340Z,91.63
2023-05-02T02:34:03.303Z,92.14
2023-05-02T02:35:03.299Z,92.65
2023-05-02T02:36:03.267Z,93.16
2023-05-02T02:37:02.983Z,93.67
2023-05-02T02:38:03.118Z,93.57
2023-05-02T02:39:03.478Z,93.77
2023-05-02T02:40:03.501Z,93.67
2023-05-02T02:41:02.947Z,93.88
2023-05-02T02:42:03.247Z,93.77
2023-05-02T02:43:03.741Z,93.98
2023-05-02T02:44:03.185Z,93.84
2023-05-02T02:45:03.394Z,93.84
2023-05-02T02:46:03.674Z,93.84
2023-05-02T02:47:02.996Z,94.04
2023-05-02T02:48:03.197Z,93.73
2023-05-02T02:49:02.853Z,93.43
2023-05-02T02:50:02.817Z,93.73
2023-05-02T02:51:03.057Z,93.52
2023-05-02T02:52:03.639Z,93.63
2023-05-02T02:53:03.754Z,93.43
2023-05-02T02:54:12.443Z,93.63
2023-05-02T02:55:03.347Z,93.93
2023-05-02T02:56:03.246Z,94.04
2023-05-02T02:57:02.892Z,93.84
2023-05-02T02:58:03.173Z,93.22
2023-05-02T02:59:02.920Z,93.12
2023-05-02T03:00:03.329Z,93.43
2023-05-02T03:01:03.328Z,93.84
2023-05-02T03:02:03.120Z,93.59
2023-05-02T03:03:03.442Z,93.28
2023-05-02T03:04:03.506Z,93.48
2023-05-02T03:05:03.294Z,93.48
2023-05-02T03:06:02.949Z,93.28
2023-05-02T03:07:02.501Z,93.69
2023-05-02T03:08:02.453Z,93.38
2023-05-02T03:09:02.165Z,93.28
2023-05-02T03:10:02.479Z,93.48
2023-05-02T03:11:02.744Z,93.79
2023-05-02T03:12:02.612Z,93.69
2023-05-02T03:13:02.601Z,93.99
2023-05-02T03:14:02.690Z,94.09
2023-05-02T03:15:03.016Z,93.99
2023-05-02T03:16:02.938Z,93.89
2023-05-02T03:17:03.619Z,93.89
2023-05-02T03:18:03.484Z,93.89
2023-05-02T03:19:03.210Z,94.30
2023-05-02T03:20:03.405Z,94.45
2023-05-02T03:21:03.499Z,94.20
2023-05-02T03:22:02.943Z,94.20
2023-05-02T03:23:02.992Z,94.09
2023-05-02T03:24:02.954Z,93.89
2023-05-02T03:25:02.841Z,93.79
2023-05-02T03:26:03.205Z,93.89
2023-05-02T03:27:02.143Z,93.89
2023-05-02T03:28:02.609Z,94.20
2023-05-02T03:29:02.672Z,94.30
2023-05-02T03:30:02.968Z,94.40
2023-05-02T03:31:02.639Z,94.40
2023-05-02T03:32:02.654Z,94.40
2023-05-02T03:33:02.719Z,94.20
2023-05-02T03:34:03.124Z,94.20
2023-05-02T03:35:02.887Z,94.14
2023-05-02T03:36:02.888Z,94.24
2023-05-02T03:37:03.229Z,94.34
2023-05-02T03:38:03.699Z,94.55
2023-05-02T03:39:03.468Z,94.65
2023-05-02T03:40:03.233Z,94.85
2023-05-02T03:41:03.543Z,94.75
2023-05-02T03:42:02.746Z,94.75
2023-05-02T03:43:02.447Z,94.24
2023-05-02T03:44:02.512Z,94.45
2023-05-02T03:45:02.949Z,94.24
2023-05-02T03:46:02.767Z,94.14
2023-05-02T03:47:02.910Z,94.04
2023-05-02T03:48:03.070Z,94.14
2023-05-02T03:49:03.296Z,93.79
2023-05-02T03:50:03.368Z,93.84
2023-05-02T03:51:03.270Z,93.59
2023-05-02T03:52:02.960Z,93.38
2023-05-02T03:53:03.054Z,93.48
2023-05-02T03:54:02.987Z,93.38
2023-05-02T03:55:03.089Z,93.28
2023-05-02T03:56:03.243Z,92.87
2023-05-02T03:57:02.442Z,92.67
2023-05-02T03:58:02.585Z,92.46
2023-05-02T03:59:02.650Z,92.32
2023-05-02T04:00:02.963Z,92.22
2023-05-02T04:01:02.550Z,92.42
2023-05-02T04:02:02.387Z,92.42
2023-05-02T04:03:02.681Z,92.32
2023-05-02T04:04:02.947Z,92.32
2023-05-02T04:05:02.817Z,92.32
2023-05-02T04:06:03.001Z,91.71
2023-05-02T04:07:02.191Z,91.50
2023-05-02T04:08:02.119Z,91.91
2023-05-02T04:09:02.314Z,92.01
2023-05-02T04:10:02.203Z,91.91
2023-05-02T04:11:02.304Z,91.71
2023-05-02T04:12:02.834Z,91.71
2023-05-02T04:13:02.506Z,91.50
2023-05-02T04:14:03.135Z,91.50
2023-05-02T04:15:03.057Z,91.81
2023-05-02T04:16:02.517Z,91.56
2023-05-02T04:17:02.547Z,91.36
2023-05-02T04:18:02.502Z,91.26
2023-05-02T04:19:02.046Z,91.16
2023-05-02T04:20:05.054Z,91.05
2023-05-02T04:21:02.380Z,91.26
2023-05-02T04:22:02.813Z,91.36
2023-05-02T04:23:02.766Z,91.36
2023-05-02T04:24:02.329Z,91.56
2023-05-02T04:25:02.509Z,91.36
2023-05-02T04:26:02.962Z,91.36
2023-05-02T04:27:02.865Z,91.61
2023-05-02T04:28:02.398Z,91.61
2023-05-02T04:29:02.784Z,91.81
2023-05-02T04:30:03.154Z,91.91
2023-05-02T04:31:02.943Z,92.01
2023-05-02T04:32:01.894Z,91.61
2023-05-02T04:33:02.300Z,91.56
2023-05-02T04:34:01.822Z,91.77
2023-05-02T04:35:02.015Z,91.66
2023-05-02T04:36:02.258Z,91.46
2023-05-02T04:37:02.680Z,91.26
2023-05-02T04:38:02.804Z,91.36
2023-05-02T04:39:03.041Z,91.26
2023-05-02T04:40:02.718Z,90.95
2023-05-02T04:41:09.346Z,91.46
2023-05-02T04:42:01.974Z,90.95
2023-05-02T04:43:01.990Z,90.75
2023-05-02T04:44:01.876Z,91.05
2023-05-02T04:45:02.186Z,90.64
2023-05-02T04:46:01.807Z,90.95
2023-05-02T04:47:02.571Z,90.40
2023-05-02T04:48:02.283Z,90.55
2023-05-02T04:49:02.744Z,91.26
2023-05-02T04:50:02.700Z,90.64
2023-05-02T04:51:02.113Z,90.64
2023-05-02T04:52:02.723Z,90.34
2023-05-02T04:53:02.461Z,90.30
2023-05-02T04:54:02.664Z,90.40
2023-05-02T04:55:03.033Z,89.89
2023-05-02T04:56:02.742Z,89.79
2023-05-02T04:57:02.477Z,89.48
2023-05-02T04:58:02.380Z,90.20
2023-05-02T04:59:02.243Z,89.59
2023-05-02T05:00:02.391Z,89.69
2023-05-02T05:01:02.325Z,89.89
2023-05-02T05:02:02.604Z,89.59
2023-05-02T05:03:02.563Z,89.18
2023-05-02T05:04:03.030Z,89.38
2023-05-02T05:05:03.019Z,89.69
2023-05-02T05:06:02.580Z,90.09
2023-05-02T05:07:02.048Z,89.89
2023-05-02T05:08:02.487Z,89.38
2023-05-02T05:09:02.046Z,89.54
2023-05-02T05:10:02.622Z,89.79
2023-05-02T05:11:02.514Z,90.09
2023-05-02T05:12:02.486Z,90.40
2023-05-02T05:13:02.581Z,90.40
2023-05-02T05:14:02.370Z,90.60
2023-05-02T05:15:02.363Z,90.40
2023-05-02T05:16:02.176Z,90.30
2023-05-02T05:17:02.471Z,90.70
2023-05-02T05:18:02.633Z,90.50
2023-05-02T05:19:02.440Z,91.01
2023-05-02T05:20:02.687Z,90.70
2023-05-02T05:21:02.548Z,90.70
2023-05-02T05:22:03.045Z,90.70
2023-05-02T05:23:02.980Z,90.60
2023-05-02T05:24:03.271Z,90.81
2023-05-02T05:25:03.259Z,90.60
2023-05-02T05:26:02.718Z,91.31
2023-05-02T05:27:02.493Z,91.42
2023-05-02T05:28:02.441Z,90.50
2023-05-02T05:29:02.284Z,90.40
2023-05-02T05:30:02.658Z,90.30
2023-05-02T05:31:02.311Z,90.60
2023-05-02T05:32:02.310Z,90.50
2023-05-02T05:33:02.224Z,90.60
2023-05-02T05:34:02.394Z,90.70
2023-05-02T05:35:02.634Z,90.70
2023-05-02T05:36:02.370Z,90.91
2023-05-02T05:37:02.755Z,90.50
2023-05-02T05:38:03.102Z,90.25
2023-05-02T05:39:03.084Z,90.40
2023-05-02T05:40:03.191Z,90.05
2023-05-02T05:41:02.582Z,90.36
2023-05-02T05:42:02.043Z,90.46
2023-05-02T05:43:02.081Z,90.16
2023-05-02T05:44:02.519Z,90.05
2023-05-02T05:45:02.170Z,90.05
2023-05-02T05:46:01.974Z,90.25
2023-05-02T05:47:02.629Z,89.85
2023-05-02T05:48:02.436Z,89.85
2023-05-02T05:49:02.724Z,89.75
2023-05-02T05:50:02.738Z,89.95
2023-05-02T05:51:02.132Z,90.66
2023-05-02T05:52:02.913Z,90.25
2023-05-02T05:53:02.585Z,90.25
2023-05-02T05:54:02.558Z,90.56
2023-05-02T05:55:02.625Z,90.56
2023-05-02T05:56:02.525Z,91.27
2023-05-02T05:57:02.790Z,91.07
2023-05-02T05:58:02.589Z,91.27
2023-05-02T05:59:02.909Z,91.72
2023-05-02T06:00:03.003Z,91.58
2023-05-02T06:01:02.529Z,91.38
2023-05-02T06:02:02.998Z,90.66
2023-05-02T06:03:03.228Z,90.25
2023-05-02T06:04:03.125Z,89.95
2023-05-02T06:05:02.994Z,89.85
2023-05-02T06:06:03.284Z,89.85
2023-05-02T06:07:02.630Z,89.81
2023-05-02T06:08:02.514Z,89.61
2023-05-02T06:09:02.467Z,89.50
2023-05-02T06:10:03.005Z,89.91
2023-05-02T06:11:02.754Z,90.31
2023-05-02T06:12:03.015Z,89.91
2023-05-02T06:13:03.064Z,89.50
2023-05-02T06:14:02.814Z,89.30
2023-05-02T06:15:03.083Z,89.40
2023-05-02T06:16:03.021Z,89.30
2023-05-02T06:17:03.097Z,89.09
2023-05-02T06:18:03.298Z,89.00
2023-05-02T06:19:03.030Z,89.30
2023-05-02T06:20:03.261Z,89.09
2023-05-02T06:21:03.331Z,88.79
2023-05-02T06:22:02.746Z,88.39
2023-05-02T06:23:02.739Z,88.28
2023-05-02T06:24:03.167Z,88.28
2023-05-02T06:25:02.748Z,88.69
2023-05-02T06:26:02.896Z,89.30
2023-05-02T06:27:02.842Z,89.09
2023-05-02T06:28:02.212Z,89.00
2023-05-02T06:29:02.746Z,89.40
2023-05-02T06:30:02.931Z,89.30
2023-05-02T06:31:02.697Z,89.50
2023-05-02T06:32:03.512Z,89.91
2023-05-02T06:33:02.989Z,89.61
2023-05-02T06:34:03.373Z,89.40
2023-05-02T06:35:02.925Z,89.70
2023-05-02T06:36:02.962Z,90.22
2023-05-02T06:37:03.111Z,90.01
2023-05-02T06:38:03.548Z,89.91
2023-05-02T06:39:02.957Z,90.92
2023-05-02T06:40:03.475Z,90.11
2023-05-02T06:41:03.112Z,90.22
2023-05-02T06:42:02.474Z,90.31
2023-05-02T06:43:02.315Z,90.83
2023-05-02T06:44:02.230Z,90.83
2023-05-02T06:45:02.126Z,91.53
2023-05-02T06:46:02.656Z,91.03
2023-05-02T06:47:02.897Z,91.43
2023-05-02T06:48:03.294Z,91.23
2023-05-02T06:49:02.795Z,90.72
2023-05-02T06:50:03.209Z,90.68
2023-05-02T06:51:03.254Z,90.78
2023-05-02T06:52:03.257Z,90.68
2023-05-02T06:53:03.557Z,90.78
2023-05-02T06:54:03.123Z,91.19
2023-05-02T06:55:02.922Z,91.29
2023-05-02T06:56:02.998Z,91.29
2023-05-02T06:57:02.520Z,91.60
2023-05-02T06:58:02.494Z,91.39
2023-05-02T06:59:02.551Z,91.60
2023-05-02T07:00:02.989Z,91.39
2023-05-02T07:01:02.901Z,91.29
2023-05-02T07:02:05.140Z,91.49
2023-05-02T07:03:02.328Z,92.10
2023-05-02T07:04:02.597Z,92.30
2023-05-02T07:05:02.606Z,92.00
2023-05-02T07:06:02.805Z,92.61
2023-05-02T07:07:03.247Z,92.91
2023-05-02T07:08:02.693Z,92.91
2023-05-02T07:09:02.941Z,92.10
2023-05-02T07:10:03.195Z,91.90
2023-05-02T07:11:03.158Z,92.10
2023-05-02T07:12:06.066Z,92.30
2023-05-02T07:13:03.517Z,92.71
2023-05-02T07:14:02.961Z,92.91
2023-05-02T07:15:03.412Z,92.82
2023-05-02T07:16:03.299Z,92.91
2023-05-02T07:17:02.817Z,92.91
2023-05-02T07:18:02.605Z,92.41
2023-05-02T07:19:02.717Z,92.06
2023-05-02T07:20:02.793Z,91.96
2023-05-02T07:21:02.713Z,91.35
2023-05-02T07:22:03.173Z,91.05
2023-05-02T07:23:02.846Z,90.74
2023-05-02T07:24:03.312Z,90.84
2023-05-02T07:25:03.063Z,90.84
2023-05-02T07:26:05.547Z,90.64
2023-05-02T07:27:02.455Z,90.19
2023-05-02T07:28:02.542Z,90.39
2023-05-02T07:29:02.535Z,90.29
2023-05-02T07:30:03.252Z,90.49
2023-05-02T07:31:02.708Z,90.59
2023-05-02T07:32:03.376Z,90.90
2023-05-02T07:33:03.216Z,90.70
2023-05-02T07:34:03.047Z,90.49
2023-05-02T07:35:03.417Z,90.59
2023-05-02T07:36:03.387Z,90.90
2023-05-02T07:37:02.845Z,90.94
2023-05-02T07:38:02.477Z,90.74
2023-05-02T07:39:02.493Z,91.14
2023-05-02T07:40:03.626Z,91.86
2023-05-02T07:41:02.683Z,92.06
2023-05-02T07:42:03.147Z,92.26
2023-05-02T07:43:03.546Z,91.25
2023-05-02T07:44:03.615Z,91.14
2023-05-02T07:45:03.132Z,91.49
2023-05-02T07:46:03.597Z,91.80
2023-05-02T07:47:02.604Z,90.99
2023-05-02T07:48:02.626Z,91.60
2023-05-02T07:49:02.917Z,92.10
2023-05-02T07:50:03.591Z,92.41
2023-05-02T07:51:03.101Z,92.61
2023-05-02T07:52:03.082Z,92.71
2023-05-02T07:53:03.066Z,92.51
2023-05-02T07:54:03.101Z,92.82
2023-05-02T07:56:03.535Z,93.12
2023-05-02T07:57:03.166Z,93.47
2023-05-02T07:58:02.651Z,93.22
2023-05-02T07:59:03.577Z,93.57
2023-05-02T08:00:03.707Z,93.98
2023-05-02T08:01:02.725Z,94.18
2023-05-02T08:02:03.729Z,94.08
2023-05-02T08:03:03.660Z,94.38
2023-05-02T08:04:03.674Z,94.38
2023-05-02T08:05:03.408Z,94.18
2023-05-02T08:06:03.616Z,94.79
2023-05-02T08:07:02.619Z,95.30
2023-05-02T08:08:02.712Z,94.69
2023-05-02T08:09:02.881Z,94.69
2023-05-02T08:10:02.552Z,94.59
2023-05-02T08:11:02.772Z,94.79
2023-05-02T08:12:03.501Z,94.59
2023-05-02T08:13:03.424Z,94.44
2023-05-02T08:14:03.203Z,94.54
2023-05-02T08:15:03.251Z,94.34
2023-05-02T08:16:03.146Z,94.54
2023-05-02T08:17:02.414Z,94.74
2023-05-02T08:18:02.461Z,94.85
2023-05-02T08:19:02.740Z,94.34
2023-05-02T08:20:02.968Z,93.83
2023-05-02T08:21:02.818Z,93.93
2023-05-02T08:22:02.564Z,93.63
2023-05-02T08:23:02.706Z,93.73
2023-05-02T08:24:02.684Z,93.22
2023-05-02T08:25:02.922Z,93.52
2023-05-02T08:26:02.962Z,93.32
2023-05-02T08:27:03.121Z,93.32
2023-05-02T08:28:03.206Z,93.52
2023-05-02T08:29:03.266Z,93.32
2023-05-02T08:30:03.863Z,92.51
2023-05-02T08:31:03.335Z,92.82
2023-05-02T08:32:03.214Z,92.71
2023-05-02T08:33:02.989Z,92.57
2023-05-02T08:34:03.216Z,92.47
2023-05-02T08:35:03.162Z,92.26
2023-05-02T08:36:03.233Z,91.96
2023-05-02T08:37:03.133Z,92.26
2023-05-02T08:38:03.505Z,92.47
2023-05-02T08:39:03.539Z,92.16
2023-05-02T08:40:03.482Z,92.47
2023-05-02T08:41:03.263Z,92.57
2023-05-02T08:42:02.555Z,92.52
2023-05-02T08:43:02.502Z,91.91
2023-05-02T08:44:02.358Z,91.82
2023-05-02T08:45:02.390Z,91.51
2023-05-02T08:46:02.827Z,91.61
2023-05-02T08:47:02.963Z,91.51
2023-05-02T08:48:02.610Z,91.51
2023-05-02T08:49:02.909Z,90.29
2023-05-02T08:50:03.327Z,90.90
2023-05-02T08:51:03.009Z,90.29
2023-05-02T08:52:02.766Z,90.19
2023-05-02T08:53:02.603Z,90.35
2023-05-02T08:54:03.073Z,89.94
2023-05-02T08:55:03.445Z,89.84
2023-05-02T08:56:03.250Z,88.73
2023-05-02T08:57:03.629Z,89.13
2023-05-02T08:58:03.486Z,88.01
2023-05-02T08:59:03.397Z,88.21
2023-05-02T09:00:03.106Z,87.51
2023-05-02T09:01:03.368Z,87.51
2023-05-02T09:02:02.683Z,87.10
2023-05-02T09:03:02.661Z,87.00
2023-05-02T09:04:02.829Z,87.30
2023-05-02T09:05:02.780Z,87.37
2023-05-02T09:06:02.512Z,86.65
2023-05-02T09:07:02.650Z,85.94
2023-05-02T09:08:02.975Z,85.78
2023-05-02T09:09:02.473Z,85.27
2023-05-02T09:10:03.033Z,84.77
2023-05-02T09:11:02.881Z,84.36
2023-05-02T09:12:03.320Z,85.17
2023-05-02T09:13:03.274Z,85.27
2023-05-02T09:14:03.217Z,84.87
2023-05-02T09:15:02.828Z,83.85
2023-05-02T09:16:03.130Z,84.26
2023-05-02T09:17:02.739Z,83.45
2023-05-02T09:18:02.756Z,84.26
2023-05-02T09:19:02.833Z,83.34
2023-05-02T09:20:02.872Z,83.24
2023-05-02T09:21:02.882Z,82.84
2023-05-02T09:22:02.254Z,82.53
2023-05-02T09:23:02.401Z,82.53
2023-05-02T09:24:02.085Z,83.34
2023-05-02T09:25:02.436Z,83.04
2023-05-02T09:26:02.212Z,83.34
2023-05-02T09:27:02.865Z,83.34
2023-05-02T09:28:03.065Z,83.51
2023-05-02T09:29:03.003Z,82.39
2023-05-02T09:30:02.911Z,82.59
2023-05-02T09:31:02.663Z,82.80
2023-05-02T09:32:02.864Z,82.19
2023-05-02T09:33:03.122Z,81.78
2023-05-02T09:34:02.913Z,81.27
2023-05-02T09:35:03.143Z,81.07
2023-05-02T09:36:02.523Z,80.87
2023-05-02T09:37:02.302Z,81.07
2023-05-02T09:38:02.389Z,81.48
2023-05-02T09:39:02.533Z,82.15
2023-05-02T09:40:02.594Z,82.56
2023-05-02T09:41:01.961Z,82.45
2023-05-02T09:42:02.338Z,82.31
2023-05-02T09:43:02.478Z,80.99
2023-05-02T09:44:02.145Z,80.59
2023-05-02T09:45:02.366Z,80.49
2023-05-02T09:46:02.664Z,80.90
2023-05-02T09:47:02.139Z,80.45
2023-05-02T09:48:02.814Z,80.86
2023-05-02T09:49:02.239Z,79.85
2023-05-02T09:50:02.739Z,78.93
2023-05-02T09:51:02.543Z,78.93
2023-05-02T09:52:02.922Z,78.46
2023-05-02T09:53:03.061Z,78.97
2023-05-02T09:54:02.914Z,78.77
2023-05-02T09:55:02.890Z,78.97
2023-05-02T09:56:02.709Z,78.26
2023-05-02T09:57:03.227Z,78.66
2023-05-02T09:58:03.294Z,78.56
2023-05-02T09:59:03.392Z,78.66
2023-05-02T10:00:03.247Z,77.75
2023-05-02T10:01:03.538Z,78.19
2023-05-02T10:02:02.650Z,78.09
2023-05-02T10:03:02.357Z,77.89
2023-05-02T10:04:02.119Z,77.59
2023-05-02T10:05:02.832Z,77.89
2023-05-02T10:06:02.248Z,78.19
2023-05-02T10:07:02.941Z,77.99
2023-05-02T10:08:03.156Z,78.70
2023-05-02T10:09:03.027Z,78.60
2023-05-02T10:10:02.892Z,78.60
2023-05-02T10:11:03.102Z,79.00
2023-05-02T10:12:03.076Z,78.56
2023-05-02T10:13:03.085Z,78.46
2023-05-02T10:14:03.202Z,78.56
2023-05-02T10:15:02.951Z,78.09
2023-05-02T10:16:02.998Z,78.09
2023-05-02T10:17:03.239Z,78.80
2023-05-02T10:18:02.880Z,78.80
2023-05-02T10:19:03.213Z,79.72
2023-05-02T10:20:03.365Z,79.41
2023-05-02T10:21:03.308Z,79.51
2023-05-02T10:22:03.353Z,79.04
2023-05-02T10:23:03.170Z,79.14
2023-05-02T10:24:02.940Z,79.55
2023-05-02T10:25:03.516Z,79.85
2023-05-02T10:26:03.126Z,79.96
2023-05-02T10:27:02.921Z,80.46
2023-05-02T10:28:02.851Z,80.06
2023-05-02T10:29:02.674Z,80.36
2023-05-02T10:30:02.796Z,80.36
2023-05-02T10:31:02.758Z,80.57
2023-05-02T10:32:03.103Z,80.77
2023-05-02T10:33:03.136Z,79.96
2023-05-02T10:34:02.519Z,79.69
2023-05-02T10:35:02.999Z,79.99
2023-05-02T10:36:02.605Z,80.40
2023-05-02T10:37:03.281Z,80.50
2023-05-02T10:38:03.141Z,80.30
2023-05-02T10:39:03.130Z,80.64
2023-05-02T10:40:03.065Z,81.25
2023-05-02T10:41:02.963Z,81.15
2023-05-02T10:42:03.634Z,80.44
2023-05-02T10:43:03.550Z,80.24
2023-05-02T10:44:03.239Z,81.15
2023-05-02T10:45:03.458Z,80.94
2023-05-02T10:46:03.049Z,80.03
2023-05-02T10:47:02.914Z,79.83
2023-05-02T10:48:02.292Z,80.24
2023-05-02T10:49:02.458Z,79.93
2023-05-02T10:50:02.713Z,79.83
2023-05-02T10:51:02.661Z,79.83
2023-05-02T10:52:03.143Z,79.52
2023-05-02T10:53:03.249Z,79.18
2023-05-02T10:54:03.222Z,79.38
2023-05-02T10:55:03.045Z,79.18
2023-05-02T10:56:02.722Z,79.18
2023-05-02T10:57:03.526Z,79.18
2023-05-02T10:58:03.331Z,77.62
2023-05-02T10:59:03.411Z,77.93
2023-05-02T11:00:03.070Z,78.23
2023-05-02T11:01:03.253Z,78.33
2023-05-02T11:02:04.099Z,78.64
2023-05-02T11:03:02.823Z,77.72
2023-05-02T11:04:02.845Z,78.23
2023-05-02T11:05:03.112Z,77.38
2023-05-02T11:06:02.829Z,76.87
2023-05-02T11:07:03.194Z,77.48
2023-05-02T11:08:03.083Z,77.28
2023-05-02T11:09:03.079Z,76.98
2023-05-02T11:10:02.916Z,77.08
2023-05-02T11:11:03.252Z,77.38
2023-05-02T11:12:03.351Z,77.45
2023-05-02T11:13:02.952Z,75.93
2023-05-02T11:14:03.315Z,75.32
2023-05-02T11:15:03.555Z,74.81
2023-05-02T11:16:02.989Z,75.38
2023-05-02T11:17:02.773Z,76.20
2023-05-02T11:18:02.528Z,75.69
2023-05-02T11:19:02.158Z,75.25
2023-05-02T11:20:02.306Z,74.54
2023-05-02T11:21:02.711Z,75.04
2023-05-02T11:22:03.116Z,74.54
2023-05-02T11:23:03.008Z,73.12
2023-05-02T11:24:02.598Z,74.13
2023-05-02T11:25:03.114Z,74.10
2023-05-02T11:26:02.689Z,73.69
2023-05-02T11:27:03.299Z,72.17
2023-05-02T11:28:02.689Z,72.28
2023-05-02T11:29:02.729Z,72.88
2023-05-02T11:30:02.884Z,71.88
2023-05-02T11:31:02.854Z,72.28
2023-05-02T11:32:02.219Z,72.58
2023-05-02T11:33:02.642Z,72.55
2023-05-02T11:34:02.169Z,73.15
2023-05-02T11:35:02.700Z,71.13
2023-05-02T11:36:02.617Z,71.33
2023-05-02T11:37:02.690Z,70.73
2023-05-02T11:38:02.686Z,70.93
2023-05-02T11:39:03.129Z,71.23
2023-05-02T11:40:02.751Z,71.64
2023-05-02T11:41:02.985Z,71.00
2023-05-02T11:42:03.217Z,70.49
2023-05-02T11:43:02.467Z,71.50
2023-05-02T11:44:02.750Z,71.40
2023-05-02T11:45:02.453Z,69.98
2023-05-02T11:46:02.723Z,69.68
2023-05-02T11:47:02.791Z,69.98
2023-05-02T11:48:01.984Z,70.05
2023-05-02T11:49:02.468Z,69.95
2023-05-02T11:50:02.012Z,70.66
2023-05-02T11:51:02.506Z,70.56
2023-05-02T11:52:02.046Z,71.06
2023-05-02T11:53:03.023Z,69.82
2023-05-02T11:54:02.814Z,70.62
2023-05-02T11:55:02.794Z,69.42
2023-05-02T11:56:02.954Z,69.78
2023-05-02T11:57:02.452Z,68.37
2023-05-02T11:58:02.904Z,66.55
2023-05-02T11:59:03.137Z,66.75
2023-05-02T12:00:03.434Z,66.75
2023-05-02T12:01:03.294Z,67.02
2023-05-02T12:02:03.145Z,67.53
2023-05-02T12:03:03.546Z,67.33
2023-05-02T12:04:03.376Z,67.53
2023-05-02T12:05:03.287Z,66.89
2023-05-02T12:06:03.830Z,66.89
2023-05-02T12:07:03.618Z,66.39
2023-05-02T12:08:03.635Z,66.08
2023-05-02T12:09:03.548Z,65.48
2023-05-02T12:10:03.403Z,65.08
2023-05-02T12:11:03.632Z,65.68
2023-05-02T12:12:03.596Z,65.99
2023-05-02T12:13:02.616Z,66.08
2023-05-02T12:14:02.754Z,66.46
2023-05-02T12:15:02.654Z,66.25
2023-05-02T12:16:02.422Z,65.82
2023-05-02T12:17:02.888Z,64.92
2023-05-02T12:18:03.510Z,64.81
2023-05-02T12:19:03.484Z,64.92
2023-05-02T12:20:03.557Z,64.01
2023-05-02T12:21:03.624Z,63.20
2023-05-02T12:22:03.528Z,64.01
2023-05-02T12:23:02.993Z,63.50
2023-05-02T12:24:03.355Z,63.90
2023-05-02T12:25:03.341Z,63.70
2023-05-02T12:26:02.781Z,64.01
2023-05-02T12:27:02.841Z,64.11
2023-05-02T12:28:03.764Z,63.20
2023-05-02T12:29:03.555Z,64.04
2023-05-02T12:30:04.243Z,65.35
2023-05-02T12:31:03.163Z,66.25
2023-05-02T12:32:03.454Z,67.07
2023-05-02T12:33:03.327Z,66.56
2023-05-02T12:34:03.297Z,66.36
2023-05-02T12:35:03.101Z,66.08
2023-05-02T12:36:03.283Z,66.08
2023-05-02T12:37:02.614Z,67.10
2023-05-02T12:38:02.298Z,66.39
2023-05-02T12:39:02.354Z,66.93
2023-05-02T12:40:02.831Z,67.23
2023-05-02T12:41:02.940Z,67.13
2023-05-02T12:42:02.645Z,66.72
2023-05-02T12:43:03.509Z,67.43
2023-05-02T12:44:03.231Z,66.99
2023-05-02T12:45:03.481Z,66.42
2023-05-02T12:46:03.204Z,66.62
2023-05-02T12:47:03.583Z,67.40
2023-05-02T12:48:03.062Z,67.30
2023-05-02T12:49:03.120Z,65.58
2023-05-02T12:50:03.467Z,65.88
2023-05-02T12:51:03.461Z,65.58
2023-05-02T12:52:03.266Z,66.39
2023-05-02T12:53:02.492Z,66.89